sensor_id;sensor_type;location;lat;lon;timestamp;P1;durP1;ratioP1;P2;durP2;ratioP2
31974;SDS011;18500;43.618;1.474;2022-12-24T00:00:03;393.48;;;363.60;;
31974;SDS011;18500;43.618;1.474;2022-12-24T00:02:30;472.23;;;435.92;;
31974;SDS011;18500;43.618;1.474;2022-12-24T00:04:56;437.98;;;404.00;;
31974;SDS011;18500;43.618;1.474;2022-12-24T00:07:22;392.60;;;362.63;;
31974;SDS011;18500;43.618;1.474;2022-12-24T00:09:47;416.77;;;384.58;;
31974;SDS011;18500;43.618;1.474;2022-12-24T00:12:13;383.38;;;353.58;;
31974;SDS011;18500;43.618;1.474;2022-12-24T00:14:39;388.13;;;359.73;;
31974;SDS011;18500;43.618;1.474;2022-12-24T00:17:04;405.48;;;375.13;;
31974;SDS011;18500;43.618;1.474;2022-12-24T00:19:30;455.23;;;420.15;;
31974;SDS011;18500;43.618;1.474;2022-12-24T00:21:56;402.63;;;372.70;;
31974;SDS011;18500;43.618;1.474;2022-12-24T00:24:22;370.17;;;342.35;;
31974;SDS011;18500;43.618;1.474;2022-12-24T00:26:47;360.17;;;333.23;;
31974;SDS011;18500;43.618;1.474;2022-12-24T00:29:13;397.48;;;367.92;;
31974;SDS011;18500;43.618;1.474;2022-12-24T00:31:39;418.17;;;387.98;;
31974;SDS011;18500;43.618;1.474;2022-12-24T00:34:04;387.85;;;360.13;;
31974;SDS011;18500;43.618;1.474;2022-12-24T00:36:30;376.73;;;349.17;;
31974;SDS011;18500;43.618;1.474;2022-12-24T00:38:55;366.05;;;339.27;;
31974;SDS011;18500;43.618;1.474;2022-12-24T00:41:21;377.90;;;350.60;;
31974;SDS011;18500;43.618;1.474;2022-12-24T00:43:53;356.77;;;331.63;;
31974;SDS011;18500;43.618;1.474;2022-12-24T00:46:30;408.95;;;378.85;;
31974;SDS011;18500;43.618;1.474;2022-12-24T00:48:57;422.27;;;391.92;;
31974;SDS011;18500;43.618;1.474;2022-12-24T00:51:23;388.73;;;360.52;;
31974;SDS011;18500;43.618;1.474;2022-12-24T00:53:49;410.13;;;378.10;;
31974;SDS011;18500;43.618;1.474;2022-12-24T00:56:15;387.90;;;358.35;;
31974;SDS011;18500;43.618;1.474;2022-12-24T00:58:41;400.50;;;371.20;;
31974;SDS011;18500;43.618;1.474;2022-12-24T01:01:07;342.77;;;318.45;;
31974;SDS011;18500;43.618;1.474;2022-12-24T01:03:33;342.98;;;318.98;;
31974;SDS011;18500;43.618;1.474;2022-12-24T01:06:20;385.98;;;359.35;;
31974;SDS011;18500;43.618;1.474;2022-12-24T01:08:48;377.95;;;351.88;;
31974;SDS011;18500;43.618;1.474;2022-12-24T01:11:15;370.38;;;343.98;;
31974;SDS011;18500;43.618;1.474;2022-12-24T01:13:40;401.77;;;374.25;;
31974;SDS011;18500;43.618;1.474;2022-12-24T01:16:13;433.15;;;403.75;;
31974;SDS011;18500;43.618;1.474;2022-12-24T01:18:43;339.80;;;315.90;;
31974;SDS011;18500;43.618;1.474;2022-12-24T01:21:09;349.73;;;325.48;;
31974;SDS011;18500;43.618;1.474;2022-12-24T01:23:35;386.10;;;357.58;;
31974;SDS011;18500;43.618;1.474;2022-12-24T01:26:01;350.77;;;324.75;;
31974;SDS011;18500;43.618;1.474;2022-12-24T01:28:28;396.85;;;368.38;;
31974;SDS011;18500;43.618;1.474;2022-12-24T01:30:54;412.65;;;383.92;;
31974;SDS011;18500;43.618;1.474;2022-12-24T01:33:19;397.08;;;369.33;;
31974;SDS011;18500;43.618;1.474;2022-12-24T01:35:45;384.35;;;357.80;;
31974;SDS011;18500;43.618;1.474;2022-12-24T01:38:11;354.90;;;329.52;;
31974;SDS011;18500;43.618;1.474;2022-12-24T01:40:38;449.42;;;418.10;;
31974;SDS011;18500;43.618;1.474;2022-12-24T01:43:23;468.27;;;435.52;;
31974;SDS011;18500;43.618;1.474;2022-12-24T01:53:37;509.95;;;475.42;;
31974;SDS011;18500;43.618;1.474;2022-12-24T01:56:03;538.72;;;501.80;;
31974;SDS011;18500;43.618;1.474;2022-12-24T01:58:30;504.52;;;470.40;;
31974;SDS011;18500;43.618;1.474;2022-12-24T02:00:57;486.73;;;453.75;;
31974;SDS011;18500;43.618;1.474;2022-12-24T02:03:23;461.65;;;430.67;;
31974;SDS011;18500;43.618;1.474;2022-12-24T02:05:53;496.92;;;464.45;;
31974;SDS011;18500;43.618;1.474;2022-12-24T02:08:20;490.03;;;457.03;;
31974;SDS011;18500;43.618;1.474;2022-12-24T02:10:46;493.25;;;460.52;;
31974;SDS011;18500;43.618;1.474;2022-12-24T02:13:13;518.88;;;483.80;;
31974;SDS011;18500;43.618;1.474;2022-12-24T02:21:41;400.38;;;373.88;;
31974;SDS011;18500;43.618;1.474;2022-12-24T02:24:07;416.52;;;389.23;;
31974;SDS011;18500;43.618;1.474;2022-12-24T02:32:35;491.05;;;458.25;;
31974;SDS011;18500;43.618;1.474;2022-12-24T02:37:51;423.60;;;396.10;;
31974;SDS011;18500;43.618;1.474;2022-12-24T02:40:28;435.15;;;407.13;;
31974;SDS011;18500;43.618;1.474;2022-12-24T02:43:02;453.88;;;424.92;;
31974;SDS011;18500;43.618;1.474;2022-12-24T02:45:33;415.20;;;387.58;;
31974;SDS011;18500;43.618;1.474;2022-12-24T02:47:59;422.25;;;395.60;;
31974;SDS011;18500;43.618;1.474;2022-12-24T02:50:26;379.25;;;355.35;;
31974;SDS011;18500;43.618;1.474;2022-12-24T02:52:52;440.13;;;412.50;;
31974;SDS011;18500;43.618;1.474;2022-12-24T03:09:25;395.55;;;369.23;;
31974;SDS011;18500;43.618;1.474;2022-12-24T03:12:09;425.52;;;397.80;;
31974;SDS011;18500;43.618;1.474;2022-12-24T03:14:44;404.00;;;377.33;;
31974;SDS011;18500;43.618;1.474;2022-12-24T03:17:12;380.90;;;355.70;;
31974;SDS011;18500;43.618;1.474;2022-12-24T03:19:38;391.75;;;366.35;;
31974;SDS011;18500;43.618;1.474;2022-12-24T03:22:06;398.75;;;372.67;;
31974;SDS011;18500;43.618;1.474;2022-12-24T03:24:33;438.10;;;409.85;;
31974;SDS011;18500;43.618;1.474;2022-12-24T03:26:59;385.58;;;360.08;;
31974;SDS011;18500;43.618;1.474;2022-12-24T03:29:26;434.70;;;405.58;;
31974;SDS011;18500;43.618;1.474;2022-12-24T03:31:52;400.08;;;374.25;;
31974;SDS011;18500;43.618;1.474;2022-12-24T03:34:25;447.65;;;418.33;;
31974;SDS011;18500;43.618;1.474;2022-12-24T03:36:50;414.13;;;387.20;;
31974;SDS011;18500;43.618;1.474;2022-12-24T03:39:16;428.15;;;400.02;;
31974;SDS011;18500;43.618;1.474;2022-12-24T03:41:42;393.02;;;367.20;;
31974;SDS011;18500;43.618;1.474;2022-12-24T03:44:08;419.42;;;392.60;;
31974;SDS011;18500;43.618;1.474;2022-12-24T03:46:33;409.92;;;383.15;;
31974;SDS011;18500;43.618;1.474;2022-12-24T03:48:59;390.38;;;364.63;;
31974;SDS011;18500;43.618;1.474;2022-12-24T03:51:25;451.77;;;422.52;;
31974;SDS011;18500;43.618;1.474;2022-12-24T03:53:51;462.23;;;432.10;;
31974;SDS011;18500;43.618;1.474;2022-12-24T03:56:18;463.67;;;433.02;;
31974;SDS011;18500;43.618;1.474;2022-12-24T03:58:44;442.05;;;412.83;;
31974;SDS011;18500;43.618;1.474;2022-12-24T04:01:10;445.48;;;416.27;;
31974;SDS011;18500;43.618;1.474;2022-12-24T04:03:35;478.80;;;446.85;;
31974;SDS011;18500;43.618;1.474;2022-12-24T04:06:05;484.85;;;452.63;;
31974;SDS011;18500;43.618;1.474;2022-12-24T04:08:36;575.22;;;536.85;;
31974;SDS011;18500;43.618;1.474;2022-12-24T04:11:05;552.75;;;516.00;;
31974;SDS011;18500;43.618;1.474;2022-12-24T04:13:33;563.92;;;526.30;;
31974;SDS011;18500;43.618;1.474;2022-12-24T04:15:59;556.88;;;520.08;;
31974;SDS011;18500;43.618;1.474;2022-12-24T04:18:27;559.42;;;522.92;;
31974;SDS011;18500;43.618;1.474;2022-12-24T04:20:53;492.85;;;460.63;;
31974;SDS011;18500;43.618;1.474;2022-12-24T04:23:19;510.77;;;476.77;;
31974;SDS011;18500;43.618;1.474;2022-12-24T04:25:45;534.28;;;498.92;;
31974;SDS011;18500;43.618;1.474;2022-12-24T04:28:11;511.77;;;477.58;;
31974;SDS011;18500;43.618;1.474;2022-12-24T04:30:37;520.17;;;486.17;;
31974;SDS011;18500;43.618;1.474;2022-12-24T04:33:03;498.85;;;467.05;;
31974;SDS011;18500;43.618;1.474;2022-12-24T04:35:29;491.00;;;459.65;;
31974;SDS011;18500;43.618;1.474;2022-12-24T04:37:55;489.55;;;457.25;;
31974;SDS011;18500;43.618;1.474;2022-12-24T04:40:21;516.55;;;483.02;;
31974;SDS011;18500;43.618;1.474;2022-12-24T04:42:46;509.20;;;476.33;;
31974;SDS011;18500;43.618;1.474;2022-12-24T04:45:12;507.63;;;475.17;;
31974;SDS011;18500;43.618;1.474;2022-12-24T04:47:37;486.90;;;455.63;;
31974;SDS011;18500;43.618;1.474;2022-12-24T04:50:03;481.67;;;450.30;;
31974;SDS011;18500;43.618;1.474;2022-12-24T04:52:29;517.25;;;482.98;;
31974;SDS011;18500;43.618;1.474;2022-12-24T04:54:55;411.27;;;385.58;;
31974;SDS011;18500;43.618;1.474;2022-12-24T04:57:20;490.40;;;458.55;;
31974;SDS011;18500;43.618;1.474;2022-12-24T04:59:46;540.97;;;505.02;;
31974;SDS011;18500;43.618;1.474;2022-12-24T05:02:12;526.10;;;490.83;;
31974;SDS011;18500;43.618;1.474;2022-12-24T05:04:37;503.25;;;470.20;;
31974;SDS011;18500;43.618;1.474;2022-12-24T05:07:03;516.38;;;482.90;;
31974;SDS011;18500;43.618;1.474;2022-12-24T05:09:29;595.17;;;554.90;;
31974;SDS011;18500;43.618;1.474;2022-12-24T05:11:54;511.35;;;477.60;;
31974;SDS011;18500;43.618;1.474;2022-12-24T05:14:20;530.50;;;495.10;;
31974;SDS011;18500;43.618;1.474;2022-12-24T05:16:46;428.75;;;400.42;;
31974;SDS011;18500;43.618;1.474;2022-12-24T05:19:12;436.75;;;407.95;;
31974;SDS011;18500;43.618;1.474;2022-12-24T05:21:38;425.92;;;398.33;;
31974;SDS011;18500;43.618;1.474;2022-12-24T05:24:03;415.02;;;387.17;;
31974;SDS011;18500;43.618;1.474;2022-12-24T05:26:49;433.40;;;404.52;;
31974;SDS011;18500;43.618;1.474;2022-12-24T05:29:17;510.67;;;475.73;;
31974;SDS011;18500;43.618;1.474;2022-12-24T05:31:43;443.58;;;414.70;;
31974;SDS011;18500;43.618;1.474;2022-12-24T05:34:10;517.50;;;482.95;;
31974;SDS011;18500;43.618;1.474;2022-12-24T05:36:37;518.75;;;484.35;;
31974;SDS011;18500;43.618;1.474;2022-12-24T05:39:03;581.70;;;542.08;;
31974;SDS011;18500;43.618;1.474;2022-12-24T05:41:30;557.17;;;519.10;;
31974;SDS011;18500;43.618;1.474;2022-12-24T05:43:56;564.55;;;526.35;;
31974;SDS011;18500;43.618;1.474;2022-12-24T05:46:22;600.60;;;557.85;;
31974;SDS011;18500;43.618;1.474;2022-12-24T05:48:49;542.92;;;506.33;;
31974;SDS011;18500;43.618;1.474;2022-12-24T05:51:16;568.03;;;530.42;;
31974;SDS011;18500;43.618;1.474;2022-12-24T05:53:43;546.53;;;510.05;;
31974;SDS011;18500;43.618;1.474;2022-12-24T05:56:20;555.38;;;518.08;;
31974;SDS011;18500;43.618;1.474;2022-12-24T05:58:47;590.47;;;549.92;;
31974;SDS011;18500;43.618;1.474;2022-12-24T06:01:13;582.13;;;542.97;;
31974;SDS011;18500;43.618;1.474;2022-12-24T06:03:39;532.50;;;497.10;;
31974;SDS011;18500;43.618;1.474;2022-12-24T06:06:06;574.55;;;535.28;;
31974;SDS011;18500;43.618;1.474;2022-12-24T06:08:37;573.03;;;534.30;;
31974;SDS011;18500;43.618;1.474;2022-12-24T06:11:06;584.20;;;544.55;;
31974;SDS011;18500;43.618;1.474;2022-12-24T06:13:34;617.03;;;575.33;;
31974;SDS011;18500;43.618;1.474;2022-12-24T06:16:01;612.83;;;571.08;;
31974;SDS011;18500;43.618;1.474;2022-12-24T06:18:28;621.15;;;578.63;;
31974;SDS011;18500;43.618;1.474;2022-12-24T06:20:55;582.85;;;544.05;;
31974;SDS011;18500;43.618;1.474;2022-12-24T06:23:21;588.08;;;547.70;;
31974;SDS011;18500;43.618;1.474;2022-12-24T06:25:48;591.75;;;551.63;;
31974;SDS011;18500;43.618;1.474;2022-12-24T06:28:15;569.47;;;531.13;;
31974;SDS011;18500;43.618;1.474;2022-12-24T06:30:44;559.80;;;522.03;;
31974;SDS011;18500;43.618;1.474;2022-12-24T06:33:12;612.50;;;570.92;;
31974;SDS011;18500;43.618;1.474;2022-12-24T06:35:37;599.03;;;557.65;;
31974;SDS011;18500;43.618;1.474;2022-12-24T06:38:03;551.80;;;514.85;;
31974;SDS011;18500;43.618;1.474;2022-12-24T06:40:29;555.15;;;517.97;;
31974;SDS011;18500;43.618;1.474;2022-12-24T06:42:54;705.90;;;656.50;;
31974;SDS011;18500;43.618;1.474;2022-12-24T06:45:20;664.40;;;618.53;;
31974;SDS011;18500;43.618;1.474;2022-12-24T06:47:46;570.63;;;532.67;;
31974;SDS011;18500;43.618;1.474;2022-12-24T06:50:11;596.75;;;556.53;;
31974;SDS011;18500;43.618;1.474;2022-12-24T06:52:37;586.78;;;547.38;;
31974;SDS011;18500;43.618;1.474;2022-12-24T06:55:03;587.00;;;548.00;;
31974;SDS011;18500;43.618;1.474;2022-12-24T06:57:29;608.13;;;567.45;;
31974;SDS011;18500;43.618;1.474;2022-12-24T06:59:57;698.78;;;650.33;;
31974;SDS011;18500;43.618;1.474;2022-12-24T07:02:24;678.90;;;630.63;;
31974;SDS011;18500;43.618;1.474;2022-12-24T07:04:50;692.28;;;642.97;;
31974;SDS011;18500;43.618;1.474;2022-12-24T07:07:15;685.20;;;636.40;;
31974;SDS011;18500;43.618;1.474;2022-12-24T07:09:41;712.70;;;661.40;;
31974;SDS011;18500;43.618;1.474;2022-12-24T07:12:07;687.42;;;637.72;;
31974;SDS011;18500;43.618;1.474;2022-12-24T07:14:33;678.80;;;630.53;;
31974;SDS011;18500;43.618;1.474;2022-12-24T07:16:59;677.92;;;628.95;;
31974;SDS011;18500;43.618;1.474;2022-12-24T07:19:24;686.35;;;636.88;;
31974;SDS011;18500;43.618;1.474;2022-12-24T07:21:50;665.17;;;617.97;;
31974;SDS011;18500;43.618;1.474;2022-12-24T07:24:16;651.60;;;605.92;;
31974;SDS011;18500;43.618;1.474;2022-12-24T07:26:42;666.72;;;621.05;;
31974;SDS011;18500;43.618;1.474;2022-12-24T07:29:07;698.17;;;648.97;;
31974;SDS011;18500;43.618;1.474;2022-12-24T07:31:33;674.08;;;625.50;;
31974;SDS011;18500;43.618;1.474;2022-12-24T07:33:58;627.33;;;584.22;;
31974;SDS011;18500;43.618;1.474;2022-12-24T07:36:24;675.28;;;627.60;;
31974;SDS011;18500;43.618;1.474;2022-12-24T07:38:52;661.83;;;614.85;;
31974;SDS011;18500;43.618;1.474;2022-12-24T07:41:18;645.92;;;601.92;;
31974;SDS011;18500;43.618;1.474;2022-12-24T07:43:44;508.48;;;474.67;;
31974;SDS011;18500;43.618;1.474;2022-12-24T07:46:09;451.42;;;422.13;;
31974;SDS011;18500;43.618;1.474;2022-12-24T07:48:36;472.13;;;441.63;;
31974;SDS011;18500;43.618;1.474;2022-12-24T07:51:01;450.70;;;422.27;;
31974;SDS011;18500;43.618;1.474;2022-12-24T07:53:27;501.15;;;468.90;;
31974;SDS011;18500;43.618;1.474;2022-12-24T07:55:53;455.23;;;426.23;;
31974;SDS011;18500;43.618;1.474;2022-12-24T07:58:19;409.48;;;382.40;;
31974;SDS011;18500;43.618;1.474;2022-12-24T08:00:46;437.63;;;408.75;;
31974;SDS011;18500;43.618;1.474;2022-12-24T08:03:16;395.10;;;368.67;;
31974;SDS011;18500;43.618;1.474;2022-12-24T08:05:43;374.58;;;350.27;;
31974;SDS011;18500;43.618;1.474;2022-12-24T08:08:09;404.60;;;378.77;;
31974;SDS011;18500;43.618;1.474;2022-12-24T08:10:37;401.80;;;375.85;;
31974;SDS011;18500;43.618;1.474;2022-12-24T08:13:03;512.03;;;477.98;;
31974;SDS011;18500;43.618;1.474;2022-12-24T08:15:29;538.83;;;501.85;;
31974;SDS011;18500;43.618;1.474;2022-12-24T08:17:55;582.13;;;543.25;;
31974;SDS011;18500;43.618;1.474;2022-12-24T08:20:20;506.20;;;473.17;;
31974;SDS011;18500;43.618;1.474;2022-12-24T08:22:46;462.05;;;432.73;;
31974;SDS011;18500;43.618;1.474;2022-12-24T08:25:12;533.33;;;498.85;;
31974;SDS011;18500;43.618;1.474;2022-12-24T08:27:37;540.05;;;504.08;;
31974;SDS011;18500;43.618;1.474;2022-12-24T08:30:03;532.65;;;497.15;;
31974;SDS011;18500;43.618;1.474;2022-12-24T08:32:30;516.47;;;482.67;;
31974;SDS011;18500;43.618;1.474;2022-12-24T08:34:55;511.52;;;478.38;;
31974;SDS011;18500;43.618;1.474;2022-12-24T08:37:21;545.58;;;509.95;;
31974;SDS011;18500;43.618;1.474;2022-12-24T08:39:47;537.70;;;502.73;;
31974;SDS011;18500;43.618;1.474;2022-12-24T08:42:12;501.40;;;468.58;;
31974;SDS011;18500;43.618;1.474;2022-12-24T08:44:38;546.05;;;510.35;;
31974;SDS011;18500;43.618;1.474;2022-12-24T08:47:04;505.70;;;472.83;;
31974;SDS011;18500;43.618;1.474;2022-12-24T08:49:29;497.65;;;465.52;;
31974;SDS011;18500;43.618;1.474;2022-12-24T08:51:56;510.80;;;478.48;;
31974;SDS011;18500;43.618;1.474;2022-12-24T08:54:22;483.45;;;453.20;;
31974;SDS011;18500;43.618;1.474;2022-12-24T08:56:49;515.65;;;482.58;;
31974;SDS011;18500;43.618;1.474;2022-12-24T08:59:15;447.25;;;418.17;;
31974;SDS011;18500;43.618;1.474;2022-12-24T09:01:40;489.58;;;458.85;;
31974;SDS011;18500;43.618;1.474;2022-12-24T09:04:06;419.38;;;393.20;;
31974;SDS011;18500;43.618;1.474;2022-12-24T09:06:32;429.48;;;402.58;;
31974;SDS011;18500;43.618;1.474;2022-12-24T09:08:57;398.67;;;373.42;;
31974;SDS011;18500;43.618;1.474;2022-12-24T09:11:23;498.75;;;466.83;;
31974;SDS011;18500;43.618;1.474;2022-12-24T09:13:49;470.48;;;440.02;;
31974;SDS011;18500;43.618;1.474;2022-12-24T09:16:15;540.80;;;505.60;;
31974;SDS011;18500;43.618;1.474;2022-12-24T09:18:41;489.15;;;457.83;;
31974;SDS011;18500;43.618;1.474;2022-12-24T09:21:08;585.95;;;547.10;;
31974;SDS011;18500;43.618;1.474;2022-12-24T09:23:38;656.20;;;612.60;;
31974;SDS011;18500;43.618;1.474;2022-12-24T09:26:08;341.05;;;320.42;;
31974;SDS011;18500;43.618;1.474;2022-12-24T09:28:36;604.38;;;564.38;;
31974;SDS011;18500;43.618;1.474;2022-12-24T09:31:02;424.50;;;398.77;;
31974;SDS011;18500;43.618;1.474;2022-12-24T09:33:30;385.13;;;361.00;;
31974;SDS011;18500;43.618;1.474;2022-12-24T09:35:58;392.67;;;368.67;;
31974;SDS011;18500;43.618;1.474;2022-12-24T09:38:24;394.38;;;369.52;;
31974;SDS011;18500;43.618;1.474;2022-12-24T09:40:50;395.42;;;370.75;;
31974;SDS011;18500;43.618;1.474;2022-12-24T09:43:21;347.00;;;325.67;;
31974;SDS011;18500;43.618;1.474;2022-12-24T09:45:51;355.03;;;333.23;;
31974;SDS011;18500;43.618;1.474;2022-12-24T09:48:24;517.40;;;484.00;;
31974;SDS011;18500;43.618;1.474;2022-12-24T09:51:01;351.55;;;328.98;;
31974;SDS011;18500;43.618;1.474;2022-12-24T09:53:51;364.50;;;341.52;;
31974;SDS011;18500;43.618;1.474;2022-12-24T09:56:27;418.73;;;393.33;;
31974;SDS011;18500;43.618;1.474;2022-12-24T09:58:58;424.17;;;398.55;;
31974;SDS011;18500;43.618;1.474;2022-12-24T10:01:29;392.08;;;368.77;;
31974;SDS011;18500;43.618;1.474;2022-12-24T10:04:00;333.58;;;313.40;;
31974;SDS011;18500;43.618;1.474;2022-12-24T10:06:33;307.92;;;289.23;;
31974;SDS011;18500;43.618;1.474;2022-12-24T10:12:13;275.50;;;257.45;;
31974;SDS011;18500;43.618;1.474;2022-12-24T10:15:02;305.38;;;287.00;;
31974;SDS011;18500;43.618;1.474;2022-12-24T10:17:39;315.60;;;296.17;;
31974;SDS011;18500;43.618;1.474;2022-12-24T10:27:53;352.42;;;330.20;;
31974;SDS011;18500;43.618;1.474;2022-12-24T10:30:21;398.45;;;373.25;;
31974;SDS011;18500;43.618;1.474;2022-12-24T10:32:48;267.85;;;250.85;;
31974;SDS011;18500;43.618;1.474;2022-12-24T10:37:53;210.73;;;197.65;;
31974;SDS011;18500;43.618;1.474;2022-12-24T10:43:24;206.63;;;194.27;;
31974;SDS011;18500;43.618;1.474;2022-12-24T10:45:59;225.93;;;211.82;;
31974;SDS011;18500;43.618;1.474;2022-12-24T10:48:28;206.55;;;193.90;;
31974;SDS011;18500;43.618;1.474;2022-12-24T10:56:01;378.98;;;356.90;;
31974;SDS011;18500;43.618;1.474;2022-12-24T10:58:29;324.80;;;304.75;;
31974;SDS011;18500;43.618;1.474;2022-12-24T11:00:55;321.35;;;301.45;;
31974;SDS011;18500;43.618;1.474;2022-12-24T11:03:22;303.85;;;285.23;;
31974;SDS011;18500;43.618;1.474;2022-12-24T11:06:03;307.60;;;289.42;;
31974;SDS011;18500;43.618;1.474;2022-12-24T11:08:40;387.23;;;364.35;;
31974;SDS011;18500;43.618;1.474;2022-12-24T11:11:10;269.83;;;253.73;;
31974;SDS011;18500;43.618;1.474;2022-12-24T11:16:28;226.00;;;212.52;;
31974;SDS011;18500;43.618;1.474;2022-12-24T11:19:02;183.32;;;171.75;;
31974;SDS011;18500;43.618;1.474;2022-12-24T11:21:33;210.43;;;197.25;;
31974;SDS011;18500;43.618;1.474;2022-12-24T11:24:06;249.13;;;234.15;;
31974;SDS011;18500;43.618;1.474;2022-12-24T11:26:43;340.10;;;320.50;;
31974;SDS011;18500;43.618;1.474;2022-12-24T11:29:19;576.58;;;541.03;;
31974;SDS011;18500;43.618;1.474;2022-12-24T11:31:47;388.42;;;366.10;;
31974;SDS011;18500;43.618;1.474;2022-12-24T11:34:20;627.75;;;587.55;;
31974;SDS011;18500;43.618;1.474;2022-12-24T11:36:50;483.00;;;454.23;;
31974;SDS011;18500;43.618;1.474;2022-12-24T11:39:21;334.48;;;315.27;;
31974;SDS011;18500;43.618;1.474;2022-12-24T11:41:48;546.08;;;511.70;;
31974;SDS011;18500;43.618;1.474;2022-12-24T11:44:24;598.10;;;556.70;;
31974;SDS011;18500;43.618;1.474;2022-12-24T11:46:51;456.13;;;426.63;;
31974;SDS011;18500;43.618;1.474;2022-12-24T11:49:30;485.92;;;453.05;;
31974;SDS011;18500;43.618;1.474;2022-12-24T11:51:59;362.23;;;339.05;;
31974;SDS011;18500;43.618;1.474;2022-12-24T11:57:29;430.83;;;403.87;;
31974;SDS011;18500;43.618;1.474;2022-12-24T12:00:02;421.88;;;393.65;;
31974;SDS011;18500;43.618;1.474;2022-12-24T12:02:30;460.10;;;427.38;;
31974;SDS011;18500;43.618;1.474;2022-12-24T12:05:24;436.35;;;407.15;;
31974;SDS011;18500;43.618;1.474;2022-12-24T12:07:57;582.65;;;542.95;;
31974;SDS011;18500;43.618;1.474;2022-12-24T12:10:35;378.30;;;352.45;;
31974;SDS011;18500;43.618;1.474;2022-12-24T12:13:10;543.65;;;503.77;;
31974;SDS011;18500;43.618;1.474;2022-12-24T12:15:57;629.58;;;581.70;;
31974;SDS011;18500;43.618;1.474;2022-12-24T12:18:50;610.05;;;563.65;;
31974;SDS011;18500;43.618;1.474;2022-12-24T12:21:22;476.73;;;442.65;;
31974;SDS011;18500;43.618;1.474;2022-12-24T12:23:57;432.27;;;401.60;;
31974;SDS011;18500;43.618;1.474;2022-12-24T12:26:29;429.88;;;399.30;;
31974;SDS011;18500;43.618;1.474;2022-12-24T12:31:35;559.13;;;518.47;;
31974;SDS011;18500;43.618;1.474;2022-12-24T12:37:01;540.80;;;500.85;;
31974;SDS011;18500;43.618;1.474;2022-12-24T12:39:36;791.78;;;732.35;;
31974;SDS011;18500;43.618;1.474;2022-12-24T12:42:14;995.30;;;908.90;;
31974;SDS011;18500;43.618;1.474;2022-12-24T12:50:44;995.83;;;906.55;;
31974;SDS011;18500;43.618;1.474;2022-12-24T12:56:22;1045.03;;;949.95;;
31974;SDS011;18500;43.618;1.474;2022-12-24T12:58:59;1076.43;;;975.13;;
31974;SDS011;18500;43.618;1.474;2022-12-24T13:07:22;1066.13;;;965.05;;
31974;SDS011;18500;43.618;1.474;2022-12-24T13:10:26;1113.85;;;999.10;;
31974;SDS011;18500;43.618;1.474;2022-12-24T13:13:02;1038.45;;;940.05;;
31974;SDS011;18500;43.618;1.474;2022-12-24T13:21:31;995.38;;;895.33;;
31974;SDS011;18500;43.618;1.474;2022-12-24T13:24:14;799.35;;;733.33;;
31974;SDS011;18500;43.618;1.474;2022-12-24T13:27:05;924.95;;;843.10;;
31974;SDS011;18500;43.618;1.474;2022-12-24T13:34:46;721.85;;;669.83;;
31974;SDS011;18500;43.618;1.474;2022-12-24T13:56:35;998.33;;;913.58;;
31974;SDS011;18500;43.618;1.474;2022-12-24T13:58:42;1087.15;;;984.08;;
31974;SDS011;18500;43.618;1.474;2022-12-24T14:03:42;836.92;;;775.47;;
31974;SDS011;18500;43.618;1.474;2022-12-24T14:06:39;914.35;;;837.28;;
31974;SDS011;18500;43.618;1.474;2022-12-24T14:09:13;1011.50;;;923.13;;
31974;SDS011;18500;43.618;1.474;2022-12-24T14:19:48;934.58;;;857.83;;
31974;SDS011;18500;43.618;1.474;2022-12-24T14:24:52;1002.53;;;912.50;;
31974;SDS011;18500;43.618;1.474;2022-12-24T14:30:00;946.08;;;870.67;;
31974;SDS011;18500;43.618;1.474;2022-12-24T14:32:36;1174.25;;;999.90;;
31974;SDS011;18500;43.618;1.474;2022-12-24T14:37:58;1518.57;;;999.90;;
31974;SDS011;18500;43.618;1.474;2022-12-24T14:40:28;1351.05;;;999.90;;
31974;SDS011;18500;43.618;1.474;2022-12-24T14:48:24;1167.82;;;999.90;;
31974;SDS011;18500;43.618;1.474;2022-12-24T14:54:01;1192.75;;;999.90;;
31974;SDS011;18500;43.618;1.474;2022-12-24T14:56:42;1144.95;;;999.90;;
31974;SDS011;18500;43.618;1.474;2022-12-24T14:59:18;1222.43;;;999.90;;
31974;SDS011;18500;43.618;1.474;2022-12-24T15:01:44;1162.90;;;999.90;;
31974;SDS011;18500;43.618;1.474;2022-12-24T15:06:43;1245.70;;;999.90;;
31974;SDS011;18500;43.618;1.474;2022-12-24T15:11:45;1239.45;;;999.90;;
31974;SDS011;18500;43.618;1.474;2022-12-24T15:14:13;1248.07;;;999.90;;
31974;SDS011;18500;43.618;1.474;2022-12-24T15:16:40;1303.10;;;999.90;;
31974;SDS011;18500;43.618;1.474;2022-12-24T15:19:19;1181.45;;;999.90;;
31974;SDS011;18500;43.618;1.474;2022-12-24T15:21:48;1240.35;;;999.90;;
31974;SDS011;18500;43.618;1.474;2022-12-24T15:24:30;1218.72;;;999.90;;
31974;SDS011;18500;43.618;1.474;2022-12-24T15:27:01;1273.10;;;999.90;;
31974;SDS011;18500;43.618;1.474;2022-12-24T15:29:38;1197.22;;;999.90;;
31974;SDS011;18500;43.618;1.474;2022-12-24T15:32:09;1216.18;;;999.90;;
31974;SDS011;18500;43.618;1.474;2022-12-24T15:37:24;1279.93;;;999.90;;
31974;SDS011;18500;43.618;1.474;2022-12-24T15:42:33;1171.90;;;999.90;;
31974;SDS011;18500;43.618;1.474;2022-12-24T15:45:12;1296.70;;;999.90;;
31974;SDS011;18500;43.618;1.474;2022-12-24T15:47:49;1449.82;;;999.90;;
31974;SDS011;18500;43.618;1.474;2022-12-24T15:50:17;1381.10;;;999.90;;
31974;SDS011;18500;43.618;1.474;2022-12-24T15:52:49;1066.78;;;965.45;;
31974;SDS011;18500;43.618;1.474;2022-12-24T15:55:25;1070.82;;;968.25;;
31974;SDS011;18500;43.618;1.474;2022-12-24T15:58:14;1014.42;;;921.10;;
31974;SDS011;18500;43.618;1.474;2022-12-24T16:03:27;798.20;;;732.13;;
31974;SDS011;18500;43.618;1.474;2022-12-24T16:06:09;777.17;;;717.13;;
31974;SDS011;18500;43.618;1.474;2022-12-24T16:08:39;576.45;;;534.78;;
31974;SDS011;18500;43.618;1.474;2022-12-24T16:11:09;736.22;;;682.72;;
31974;SDS011;18500;43.618;1.474;2022-12-24T16:16:15;394.60;;;367.92;;
31974;SDS011;18500;43.618;1.474;2022-12-24T16:21:57;430.45;;;399.08;;
31974;SDS011;18500;43.618;1.474;2022-12-24T16:24:24;420.52;;;387.50;;
31974;SDS011;18500;43.618;1.474;2022-12-24T16:26:52;347.13;;;322.58;;
31974;SDS011;18500;43.618;1.474;2022-12-24T16:29:19;271.70;;;253.52;;
31974;SDS011;18500;43.618;1.474;2022-12-24T16:31:50;305.42;;;284.85;;
31974;SDS011;18500;43.618;1.474;2022-12-24T16:34:18;286.87;;;267.40;;
31974;SDS011;18500;43.618;1.474;2022-12-24T16:36:48;280.42;;;261.75;;
31974;SDS011;18500;43.618;1.474;2022-12-24T16:39:17;343.73;;;321.00;;
31974;SDS011;18500;43.618;1.474;2022-12-24T16:41:52;300.58;;;280.45;;
31974;SDS011;18500;43.618;1.474;2022-12-24T16:44:38;320.10;;;298.08;;
31974;SDS011;18500;43.618;1.474;2022-12-24T16:47:05;291.98;;;273.08;;